Aktuální počasí v Česku a ve světě - METAR

Seznam meteostanic umístěných nejčasteji na letišti v ČR a ve světě

Vyhledat místa podle abecedy:
A B C D E F G H I J K L M N O P Q R S T U V W X Y Z

Filtrovat:

ID stanice:
a/nebo
Název místa (fulltext):
 
Místo (ID)Naposledy načteno 
Brno - Tuřany (Brno/Tu) 20.06.2021 09:00 UTC Zobrazit data
Místo: Brno - Tuřany
Teplota: 29 °C (pocitová: 31.3 °C)
Vítr: 2 m/s z(e) 130°
Počasí: skoro zataženo
Dohlednost: 30 km
Zákl. oblačnosti: 5/8 9000 m
Vlhkost: 48%
Červená - Opava (Cervena/uL) 20.06.2021 09:00 UTC Zobrazit data
Místo: Červená - Opava
Teplota: 26 °C (pocitová: 27.5 °C)
Vítr: 2 m/s z(e) 0°
Počasí: skorojasno
Dohlednost: 35 km
Zákl. oblačnosti: 1/8 1230 m
Vlhkost: 45%
České Budějovice (C.Budej/po) 20.06.2021 09:00 UTC Zobrazit data
Místo: České Budějovice
Teplota: 30 °C (pocitová: 32.5 °C)
Vítr: 1 m/s z(e) 40°
Počasí: skorojasno
Dohlednost: 25 km
Zákl. oblačnosti: 1/8 5700 m
Vlhkost: 46%
Cheb (Cheb) 20.06.2021 09:00 UTC Zobrazit data
Místo: Cheb
Teplota: 24 °C (pocitová: 24.5 °C)
Vítr: 4 m/s z(e) 220°
Počasí: zataženo
Dohlednost: 25 km
Zákl. oblačnosti: 4/8 900 m;7/8 2400 m
Vlhkost: 65%
Chotusice - Čáslav (Caslav) 20.06.2021 09:00 UTC Zobrazit data
Místo: Chotusice - Čáslav
Teplota: 30 °C (pocitová: 32.8 °C)
Vítr: 6 m/s z(e) 140°
Počasí: oblačno
Dohlednost: 20 km
Zákl. oblačnosti: 3/8 4500 m
Vlhkost: 40%
Churáňov (Churanov) 20.06.2021 09:00 UTC Zobrazit data
Místo: Churáňov
Teplota: 26 °C (pocitová: 27.5 °C)
Vítr: 2 m/s z(e) 360°
Počasí: skoro zataženo
Dohlednost: 25 km
Zákl. oblačnosti: 1/8 1500 m;5/8 9000 m
Vlhkost: 42%
Doksany - Litoměřice (Doksany) 20.06.2021 09:00 UTC Zobrazit data
Místo: Doksany - Litoměřice
Teplota: 28 °C (pocitová: 30.1 °C)
Vítr: 1 m/s z(e) 0°
Počasí: skoro zataženo
Dohlednost: 26 km
Zákl. oblačnosti: 1/8 1500 m;6/8 6300 m
Vlhkost: 51%
Dukovany (Dukovany) 20.06.2021 09:00 UTC Zobrazit data
Místo: Dukovany
Teplota: 27 °C (pocitová: 28.7 °C)
Vítr: 3 m/s z(e) 0°
Počasí: oblačno
Dohlednost: 30 km
Zákl. oblačnosti: 4/8 9000 m
Vlhkost: 58%
Holešov (Holesov) 20.06.2021 09:00 UTC Zobrazit data
Místo: Holešov
Teplota: 29 °C (pocitová: 31.3 °C)
Vítr: 2 m/s z(e) 170°
Počasí: skorojasno
Dohlednost: 50 km
Zákl. oblačnosti: 1/8 1500 m
Vlhkost: 48%
Kadaň - Tušimice (Tusimice) 20.06.2021 09:00 UTC Zobrazit data
Místo: Kadaň - Tušimice
Teplota: 27 °C (pocitová: 28.7 °C)
Vítr: 2 m/s z(e) 0°
Počasí: skoro zataženo
Dohlednost: 10 km
Zákl. oblačnosti: 6/8 4500 m;3/8 7500 m
Vlhkost: 62%
Karlovy Vary (K.Vary) 20.06.2021 09:00 UTC Zobrazit data
Místo: Karlovy Vary
Teplota: 25 °C (pocitová: 26 °C)
Vítr: 3 m/s z(e) 270°
Počasí: skoro zataženo
Dohlednost: 30 km
Zákl. oblačnosti: 7/8 3900 m
Vlhkost: 57%
Kocelovice (Kocelovice) 20.06.2021 09:00 UTC Zobrazit data
Místo: Kocelovice
Teplota: 27 °C (pocitová: 28.7 °C)
Vítr: 2 m/s z(e) 0°
Počasí: oblačno
Dohlednost: 27 km
Zákl. oblačnosti: 1/8 1290 m;3/8 7800 m
Vlhkost: 54%
Kopisty (Kopisty) 20.06.2021 09:00 UTC Zobrazit data
Místo: Kopisty
Teplota: 28 °C (pocitová: 30.5 °C)
Vítr: 0 m/s z(e) 0°
Počasí: skoro zataženo
Dohlednost: 15 km
Zákl. oblačnosti: 3/8 4200 m;6/8 7500 m
Vlhkost: 58%
Kostelní Myslová (K.Myslova) 20.06.2021 09:00 UTC Zobrazit data
Místo: Kostelní Myslová
Teplota: 27 °C (pocitová: 28.5 °C)
Vítr: 5 m/s z(e) 110°
Počasí: skorojasno
Dohlednost: 40 km
Zákl. oblačnosti: 2/8 9000 m
Vlhkost: 54%
Křešín - Kramolín (Kramolin) 20.06.2021 09:00 UTC Zobrazit data
Místo: Křešín - Kramolín
Teplota: 28 °C (pocitová: 30 °C)
Vítr: 3 m/s z(e) 130°
Počasí: oblačno
Dohlednost: 35 km
Zákl. oblačnosti: 1/8 1500 m;3/8 7800 m
Vlhkost: 45%
Kuchařovice - Znojmo (Kucharovic) 20.06.2021 09:00 UTC Zobrazit data
Místo: Kuchařovice - Znojmo
Teplota: 27 °C (pocitová: 28.7 °C)
Vítr: 3 m/s z(e) 130°
Počasí: oblačno
Dohlednost: 30 km
Zákl. oblačnosti: 4/8 9000 m
Vlhkost: 58%
Liberec (Liberec) 20.06.2021 09:00 UTC Zobrazit data
Místo: Liberec
Teplota: 30 °C (pocitová: 32.7 °C)
Vítr: 3 m/s z(e) 150°
Počasí: oblačno
Dohlednost: 35 km
Zákl. oblačnosti: 1/8 1800 m;3/8 6900 m
Vlhkost: 43%
Luká (Luka) 20.06.2021 09:00 UTC Zobrazit data
Místo: Luká
Teplota: 26 °C (pocitová: 27.3 °C)
Vítr: 3 m/s z(e) 210°
Počasí: skorojasno
Dohlednost: 45 km
Zákl. oblačnosti: 1/8 1200 m
Vlhkost: 54%
Lysá Hora (Lysa Hora) 20.06.2021 09:00 UTC Zobrazit data
Místo: Lysá Hora
Teplota: 21 °C (pocitová: 21 °C)
Vítr: 2 m/s z(e) 0°
Počasí: skorojasno
Dohlednost: 50 km
Zákl. oblačnosti: 1/8 690 m
Vlhkost: 53%
Milešovka (Milesovka) 20.06.2021 09:00 UTC Zobrazit data
Místo: Milešovka
Teplota: 28 °C (pocitová: 30 °C)
Vítr: 4 m/s z(e) 210°
Počasí: zataženo
Dohlednost: 50 km
Zákl. oblačnosti: 4/8 4200 m;8/8 7800 m
Vlhkost: 55%
Mošnov (Ostrava/Mo) 20.06.2021 09:00 UTC Zobrazit data
Místo: Mošnov
Teplota: 29 °C (pocitová: 31.3 °C)
Vítr: 2 m/s z(e) 0°
Počasí: skorojasno
Dohlednost: 30 km
Zákl. oblačnosti: 1/8 1500 m
Vlhkost: 48%
Náměšť nad Oslavou (Namest n/O) 20.06.2021 09:00 UTC Zobrazit data
Místo: Náměšť nad Oslavou
Teplota: 26 °C (pocitová: 27.3 °C)
Vítr: 3 m/s z(e) 140°
Počasí: oblačno
Dohlednost: 30 km
Zákl. oblačnosti: 1/8 1050 m;3/8 9000 m
Vlhkost: 61%
Pardubice (Pardubice) 20.06.2021 09:00 UTC Zobrazit data
Místo: Pardubice
Teplota: 30 °C (pocitová: 32.5 °C)
Vítr: 1 m/s z(e) 110°
Počasí: skorojasno
Dohlednost: 20 km
Zákl. oblačnosti: 2/8 1440 m
Vlhkost: 43%
Pec pod Sněžkou (Pec p.Snez) 20.06.2021 09:00 UTC Zobrazit data
Místo: Pec pod Sněžkou
Teplota: 25 °C (pocitová: 26 °C)
Vítr: 3 m/s z(e) 190°
Počasí: oblačno
Dohlednost: 20 km
Zákl. oblačnosti: 1/8 780 m;3/8 9000 m
Vlhkost: 47%
Plzeň město - Mikulka (Plzen/Miku) 20.06.2021 09:00 UTC Zobrazit data
Místo: Plzeň město - Mikulka
Teplota: 29 °C (pocitová: 31.3 °C)
Vítr: 2 m/s z(e) 0°
Počasí: skoro zataženo
Dohlednost: 30 km
Zákl. oblačnosti: 1/8 1200 m;7/8 7200 m
Vlhkost: 51%
Polom (Polom) 20.06.2021 09:00 UTC Zobrazit data
Místo: Polom
Teplota: 27 °C (pocitová: 28.7 °C)
Vítr: 3 m/s z(e) 200°
Počasí: skorojasno
Dohlednost: 25 km
Zákl. oblačnosti: 1/8 1500 m
Vlhkost: 42%
Praha - Karlov (Praha/Kar) 20.06.2021 09:00 UTC Zobrazit data
Místo: Praha - Karlov
Teplota: 29 °C (pocitová: 31.3 °C)
Vítr: 3 m/s z(e) 220°
Počasí: skoro zataženo
Dohlednost: 35 km
Zákl. oblačnosti: 7/8 4800 m
Vlhkost: 48%
Praha - Kbely (Praha/Kbe) 20.06.2021 09:00 UTC Zobrazit data
Místo: Praha - Kbely
Teplota: 29 °C (pocitová: 31.3 °C)
Vítr: 1 m/s z(e) 150°
Počasí: skorojasno
Dohlednost: 30 km
Zákl. oblačnosti: 2/8 7200 m
Vlhkost: 51%
Praha - Libuš (Praha/Lib) 20.06.2021 09:00 UTC Zobrazit data
Místo: Praha - Libuš
Teplota: 30 °C (pocitová: 32.6 °C)
Vítr: 2 m/s z(e) 0°
Počasí: skoro zataženo
Dohlednost: 35 km
Zákl. oblačnosti: 2/8 4500 m;4/8 7500 m
Vlhkost: 46%
Praha - Ruzyně (Praha/Ru) 20.06.2021 09:00 UTC Zobrazit data
Místo: Praha - Ruzyně
Teplota: 28 °C (pocitová: 30 °C)
Vítr: 2 m/s z(e) 230°
Počasí: skoro zataženo
Dohlednost: 30 km
Zákl. oblačnosti: 2/8 4500 m;5/8 9000 m
Vlhkost: 58%
Přibyslav (Pribyslav) 20.06.2021 09:00 UTC Zobrazit data
Místo: Přibyslav
Teplota: 27 °C (pocitová: 28.5 °C)
Vítr: 6 m/s z(e) 160°
Počasí: skorojasno
Dohlednost: 35 km
Zákl. oblačnosti: 1/8 1230 m
Vlhkost: 54%
Přimda (Primda) 20.06.2021 09:00 UTC Zobrazit data
Místo: Přimda
Teplota: 23 °C (pocitová: 22.8 °C)
Vítr: 6 m/s z(e) 280°
Počasí: skoro zataženo
Dohlednost: 30 km
Zákl. oblačnosti: 4/8 3300 m;7/8 3600 m
Vlhkost: 69%
Šerák (Serak) 20.06.2021 09:00 UTC Zobrazit data
Místo: Šerák
Teplota: 21 °C (pocitová: 21.5 °C)
Vítr: 1 m/s z(e) 0°
Počasí: oblačno
Dohlednost: 60 km
Zákl. oblačnosti: 2/8 1080 m
Vlhkost: 57%
Svratouch (Svratouch) 20.06.2021 09:00 UTC Zobrazit data
Místo: Svratouch
Teplota: 26 °C (pocitová: 27.1 °C)
Vítr: 6 m/s z(e) 170°
Počasí: skorojasno
Dohlednost: 40 km
Zákl. oblačnosti: 1/8 1380 m
Vlhkost: 45%
Temelín (Temelin) 20.06.2021 09:00 UTC Zobrazit data
Místo: Temelín
Teplota: 28 °C (pocitová: 30 °C)
Vítr: 2 m/s z(e) 100°
Počasí: oblačno
Dohlednost: 35 km
Zákl. oblačnosti: 4/8 6000 m
Vlhkost: 51%
Ústí nad Labem - Kočkov (Usti n/L) 20.06.2021 09:00 UTC Zobrazit data
Místo: Ústí nad Labem - Kočkov
Teplota: 27 °C (pocitová: 28.7 °C)
Vítr: 2 m/s z(e) 260°
Počasí: skoro zataženo
Dohlednost: 29 km
Zákl. oblačnosti: 1/8 1500 m;3/8 4500 m
Vlhkost: 54%
Ústí nad Orlicí (Usti n/O) 20.06.2021 09:00 UTC Zobrazit data
Místo: Ústí nad Orlicí
Teplota: 29 °C (pocitová: 31.3 °C)
Vítr: 2 m/s z(e) 0°
Počasí: skorojasno
Dohlednost: 45 km
Zákl. oblačnosti: 2/8 1500 m
Vlhkost: 43%
Aalborg (EKYT) 20.06.2021 08:51 UTC Zobrazit METAR
EKYT 200851Z 11010KT 9999 BKN011 16/14 Q1008
Aarhus (EKAH) 20.06.2021 08:50 UTC Zobrazit METAR
EKAH 200850Z AUTO 22008G21KT 160V270 9999 OVC008/// 18/16 Q1011
Abu Dhabi (OMAA) 20.06.2021 09:00 UTC Zobrazit METAR
OMAA 200900Z 33012KT 290V360 9000 NSC 37/29 Q0999 NOSIG
Abuja (DNAA) 20.06.2021 00:00 UTC Zobrazit METAR
DNAA 200000Z 07003KT 9999 TS FEW010 FEW020 26/24 Q1015 NOSIG
Accra (DGAA) 20.06.2021 04:00 UTC Zobrazit METAR
DGAA 200400Z 27007KT 9999 FEW012 26/24 Q1012 NOSIG
Addis Abeba (HAAB) 18.06.2021 20:00 UTC Zobrazit METAR
HAAB 182000Z 17003KT 9999 SCT025 18/07 Q1029
Agana (PGUM) 20.06.2021 08:54 UTC Zobrazit METAR
PGUM 200854Z 00000KT 10SM CLR 27/24 A2988 RMK AO2 RAE33 SLP108 P0002 60004 T02720239 55000
Ahe Island (NTHE) Zatím nenačteno  
Akureyri (BIAR) 20.06.2021 09:00 UTC Zobrazit METAR
BIAR 200900Z VRB04KT 9999 SCT039 08/02 Q1015
Almaty (UAAA) Zatím nenačteno  
Amman (OJAM) 20.06.2021 09:00 UTC Zobrazit METAR
OJAM 200900Z 35008KT 7000 NSC 29/03 Q1013 NOSIG
Amsterdam (EHAM) 20.06.2021 08:55 UTC Zobrazit METAR
EHAM 200855Z 25007KT 190V280 9999 FEW008 SCT011 BKN022 19/16 Q1008 NOSIG
Antananarivo (FMMI) 20.06.2021 09:00 UTC Zobrazit METAR
FMMI 200900Z 15011KT 090V190 9999 SCT020 20/10 Q1027 NOSIG
1 2 3 ... 9 Další
Reklama

Reklama


Newslettter

Počasí na Váš email

Emaily jsou bez reklamy a bez spamu



Odhlásit newsletter



Kontaktujte nás

Kontaktujte Slunečno.cz

Kontaktujte provozovatele Slunecno.cz

Další české internetové stránky (nejen) o počasí najdete v katalogu TOPlist - weby o počasí nebo vyhledejte na internetu, co jste tu na Počasí Slunečno Slunečnu zatím nenašli:
Přidat mezzi oblíbené stránkyPřidat Slunečno.cz do oblíbených | Nastavit jako HOMEPAGENastavit Slunečno.cz jako HOMEPAGE

Posunout stránku nahoru Posunout stránku nahoru Posunout stránku nahoru
Reklama